sensor_id;sensor_type;location;lat;lon;timestamp;P1;durP1;ratioP1;P2;durP2;ratioP2
26502;SDS011;14177;51.520;6.764;2023-05-29T00:01:42;3.97;;;2.00;;
26502;SDS011;14177;51.520;6.764;2023-05-29T00:04:10;3.58;;;2.25;;
26502;SDS011;14177;51.520;6.764;2023-05-29T00:06:39;3.67;;;2.50;;
26502;SDS011;14177;51.520;6.764;2023-05-29T00:09:07;4.28;;;2.00;;
26502;SDS011;14177;51.520;6.764;2023-05-29T00:11:34;4.65;;;2.35;;
26502;SDS011;14177;51.520;6.764;2023-05-29T00:14:02;5.03;;;2.22;;
26502;SDS011;14177;51.520;6.764;2023-05-29T00:16:29;5.28;;;2.70;;
26502;SDS011;14177;51.520;6.764;2023-05-29T00:18:56;7.40;;;2.47;;
26502;SDS011;14177;51.520;6.764;2023-05-29T00:21:24;4.70;;;2.13;;
26502;SDS011;14177;51.520;6.764;2023-05-29T00:23:51;5.53;;;2.40;;
26502;SDS011;14177;51.520;6.764;2023-05-29T00:26:18;4.63;;;2.25;;
26502;SDS011;14177;51.520;6.764;2023-05-29T00:28:51;8.35;;;2.50;;
26502;SDS011;14177;51.520;6.764;2023-05-29T00:31:18;6.70;;;2.40;;
26502;SDS011;14177;51.520;6.764;2023-05-29T00:33:45;8.68;;;2.55;;
26502;SDS011;14177;51.520;6.764;2023-05-29T00:36:12;5.78;;;2.10;;
26502;SDS011;14177;51.520;6.764;2023-05-29T00:38:39;7.18;;;2.50;;
26502;SDS011;14177;51.520;6.764;2023-05-29T00:41:06;5.72;;;2.40;;
26502;SDS011;14177;51.520;6.764;2023-05-29T00:43:38;4.80;;;2.40;;
26502;SDS011;14177;51.520;6.764;2023-05-29T00:46:05;4.65;;;2.90;;
26502;SDS011;14177;51.520;6.764;2023-05-29T00:48:32;5.65;;;2.50;;
26502;SDS011;14177;51.520;6.764;2023-05-29T00:51:00;5.93;;;2.75;;
26502;SDS011;14177;51.520;6.764;2023-05-29T00:53:28;4.35;;;2.08;;
26502;SDS011;14177;51.520;6.764;2023-05-29T00:55:55;9.23;;;2.67;;
26502;SDS011;14177;51.520;6.764;2023-05-29T00:58:24;4.88;;;2.67;;
26502;SDS011;14177;51.520;6.764;2023-05-29T01:00:52;6.72;;;3.08;;
26502;SDS011;14177;51.520;6.764;2023-05-29T01:03:20;6.60;;;2.60;;
26502;SDS011;14177;51.520;6.764;2023-05-29T01:05:49;6.95;;;2.42;;
26502;SDS011;14177;51.520;6.764;2023-05-29T01:08:18;7.70;;;2.67;;
26502;SDS011;14177;51.520;6.764;2023-05-29T01:10:45;4.25;;;2.53;;
26502;SDS011;14177;51.520;6.764;2023-05-29T01:13:18;3.53;;;2.40;;
26502;SDS011;14177;51.520;6.764;2023-05-29T01:15:56;7.45;;;2.50;;
26502;SDS011;14177;51.520;6.764;2023-05-29T01:27:37;8.73;;;2.22;;
26502;SDS011;14177;51.520;6.764;2023-05-29T01:30:07;12.32;;;2.42;;
26502;SDS011;14177;51.520;6.764;2023-05-29T01:32:37;13.38;;;2.35;;
26502;SDS011;14177;51.520;6.764;2023-05-29T01:35:06;8.35;;;2.35;;
26502;SDS011;14177;51.520;6.764;2023-05-29T01:37:34;8.23;;;2.42;;
26502;SDS011;14177;51.520;6.764;2023-05-29T01:40:02;7.18;;;1.90;;
26502;SDS011;14177;51.520;6.764;2023-05-29T01:42:30;8.27;;;2.22;;
26502;SDS011;14177;51.520;6.764;2023-05-29T01:44:58;7.07;;;2.22;;
26502;SDS011;14177;51.520;6.764;2023-05-29T01:47:26;10.77;;;2.42;;
26502;SDS011;14177;51.520;6.764;2023-05-29T01:49:53;8.13;;;2.15;;
26502;SDS011;14177;51.520;6.764;2023-05-29T01:52:22;6.85;;;1.85;;
26502;SDS011;14177;51.520;6.764;2023-05-29T01:54:49;9.20;;;2.47;;
26502;SDS011;14177;51.520;6.764;2023-05-29T01:57:16;9.70;;;2.17;;
26502;SDS011;14177;51.520;6.764;2023-05-29T01:59:44;8.38;;;2.28;;
26502;SDS011;14177;51.520;6.764;2023-05-29T02:02:11;8.00;;;2.30;;
26502;SDS011;14177;51.520;6.764;2023-05-29T02:04:38;8.88;;;2.17;;
26502;SDS011;14177;51.520;6.764;2023-05-29T02:07:06;7.57;;;2.55;;
26502;SDS011;14177;51.520;6.764;2023-05-29T02:09:34;10.13;;;1.92;;
26502;SDS011;14177;51.520;6.764;2023-05-29T02:12:01;11.13;;;2.75;;
26502;SDS011;14177;51.520;6.764;2023-05-29T02:14:29;6.30;;;1.85;;
26502;SDS011;14177;51.520;6.764;2023-05-29T02:16:58;8.82;;;2.25;;
26502;SDS011;14177;51.520;6.764;2023-05-29T02:19:25;7.15;;;2.20;;
26502;SDS011;14177;51.520;6.764;2023-05-29T02:21:53;10.18;;;2.25;;
26502;SDS011;14177;51.520;6.764;2023-05-29T02:24:21;7.60;;;2.38;;
26502;SDS011;14177;51.520;6.764;2023-05-29T02:26:48;8.63;;;2.45;;
26502;SDS011;14177;51.520;6.764;2023-05-29T02:29:17;6.00;;;1.92;;
26502;SDS011;14177;51.520;6.764;2023-05-29T02:31:44;10.55;;;2.28;;
26502;SDS011;14177;51.520;6.764;2023-05-29T02:34:12;8.68;;;2.65;;
26502;SDS011;14177;51.520;6.764;2023-05-29T02:36:40;8.43;;;2.15;;
26502;SDS011;14177;51.520;6.764;2023-05-29T02:39:08;8.52;;;2.38;;
26502;SDS011;14177;51.520;6.764;2023-05-29T02:41:37;10.00;;;1.88;;
26502;SDS011;14177;51.520;6.764;2023-05-29T02:44:04;10.80;;;2.28;;
26502;SDS011;14177;51.520;6.764;2023-05-29T02:46:31;6.07;;;1.80;;
26502;SDS011;14177;51.520;6.764;2023-05-29T02:48:59;10.82;;;2.42;;
26502;SDS011;14177;51.520;6.764;2023-05-29T02:51:26;8.48;;;1.80;;
26502;SDS011;14177;51.520;6.764;2023-05-29T02:53:54;12.77;;;2.40;;
26502;SDS011;14177;51.520;6.764;2023-05-29T02:56:22;10.50;;;2.22;;
26502;SDS011;14177;51.520;6.764;2023-05-29T02:58:50;14.70;;;2.30;;
26502;SDS011;14177;51.520;6.764;2023-05-29T03:01:17;10.20;;;2.03;;
26502;SDS011;14177;51.520;6.764;2023-05-29T03:03:47;9.63;;;1.98;;
26502;SDS011;14177;51.520;6.764;2023-05-29T03:06:14;9.15;;;2.30;;
26502;SDS011;14177;51.520;6.764;2023-05-29T03:08:44;7.72;;;1.90;;
26502;SDS011;14177;51.520;6.764;2023-05-29T03:11:11;8.30;;;2.22;;
26502;SDS011;14177;51.520;6.764;2023-05-29T03:13:39;7.38;;;2.08;;
26502;SDS011;14177;51.520;6.764;2023-05-29T03:16:09;8.00;;;2.20;;
26502;SDS011;14177;51.520;6.764;2023-05-29T03:18:38;6.47;;;1.98;;
26502;SDS011;14177;51.520;6.764;2023-05-29T03:21:06;5.90;;;2.00;;
26502;SDS011;14177;51.520;6.764;2023-05-29T03:23:34;10.38;;;2.20;;
26502;SDS011;14177;51.520;6.764;2023-05-29T03:26:01;13.10;;;2.55;;
26502;SDS011;14177;51.520;6.764;2023-05-29T03:28:32;11.70;;;2.95;;
26502;SDS011;14177;51.520;6.764;2023-05-29T03:31:02;10.93;;;2.28;;
26502;SDS011;14177;51.520;6.764;2023-05-29T03:33:29;11.05;;;2.28;;
26502;SDS011;14177;51.520;6.764;2023-05-29T03:36:03;12.90;;;2.17;;
26502;SDS011;14177;51.520;6.764;2023-05-29T03:38:31;12.55;;;2.50;;
26502;SDS011;14177;51.520;6.764;2023-05-29T03:40:59;14.20;;;2.80;;
26502;SDS011;14177;51.520;6.764;2023-05-29T03:43:26;5.97;;;2.08;;
26502;SDS011;14177;51.520;6.764;2023-05-29T03:45:53;11.13;;;2.50;;
26502;SDS011;14177;51.520;6.764;2023-05-29T03:48:20;12.15;;;2.95;;
26502;SDS011;14177;51.520;6.764;2023-05-29T03:50:49;11.52;;;2.97;;
26502;SDS011;14177;51.520;6.764;2023-05-29T03:53:23;9.88;;;2.35;;
26502;SDS011;14177;51.520;6.764;2023-05-29T03:55:51;17.77;;;2.95;;
26502;SDS011;14177;51.520;6.764;2023-05-29T03:58:18;11.25;;;2.22;;
26502;SDS011;14177;51.520;6.764;2023-05-29T04:00:46;13.32;;;2.97;;
26502;SDS011;14177;51.520;6.764;2023-05-29T04:03:15;15.40;;;2.58;;
26502;SDS011;14177;51.520;6.764;2023-05-29T04:05:44;20.67;;;3.17;;
26502;SDS011;14177;51.520;6.764;2023-05-29T04:08:12;14.93;;;2.75;;
26502;SDS011;14177;51.520;6.764;2023-05-29T04:10:41;13.02;;;2.67;;
26502;SDS011;14177;51.520;6.764;2023-05-29T04:13:09;10.77;;;1.92;;
26502;SDS011;14177;51.520;6.764;2023-05-29T04:15:37;11.18;;;2.42;;
26502;SDS011;14177;51.520;6.764;2023-05-29T04:18:04;13.38;;;2.60;;
26502;SDS011;14177;51.520;6.764;2023-05-29T04:20:32;9.45;;;2.13;;
26502;SDS011;14177;51.520;6.764;2023-05-29T04:22:59;18.88;;;2.45;;
26502;SDS011;14177;51.520;6.764;2023-05-29T04:25:27;11.52;;;2.40;;
26502;SDS011;14177;51.520;6.764;2023-05-29T04:27:54;12.13;;;2.85;;
26502;SDS011;14177;51.520;6.764;2023-05-29T04:30:21;11.50;;;2.40;;
26502;SDS011;14177;51.520;6.764;2023-05-29T04:32:48;12.40;;;2.55;;
26502;SDS011;14177;51.520;6.764;2023-05-29T04:35:15;10.70;;;2.83;;
26502;SDS011;14177;51.520;6.764;2023-05-29T04:37:51;15.13;;;2.47;;
26502;SDS011;14177;51.520;6.764;2023-05-29T04:40:20;10.68;;;2.35;;
26502;SDS011;14177;51.520;6.764;2023-05-29T04:42:49;12.25;;;2.00;;
26502;SDS011;14177;51.520;6.764;2023-05-29T04:45:19;11.75;;;2.33;;
26502;SDS011;14177;51.520;6.764;2023-05-29T04:47:51;11.13;;;2.10;;
26502;SDS011;14177;51.520;6.764;2023-05-29T04:50:19;13.18;;;2.30;;
26502;SDS011;14177;51.520;6.764;2023-05-29T04:52:47;17.85;;;2.70;;
26502;SDS011;14177;51.520;6.764;2023-05-29T04:55:14;18.80;;;2.90;;
26502;SDS011;14177;51.520;6.764;2023-05-29T04:57:42;17.98;;;3.17;;
26502;SDS011;14177;51.520;6.764;2023-05-29T05:00:10;15.23;;;2.60;;
26502;SDS011;14177;51.520;6.764;2023-05-29T05:02:42;17.25;;;3.03;;
26502;SDS011;14177;51.520;6.764;2023-05-29T05:05:12;14.63;;;3.00;;
26502;SDS011;14177;51.520;6.764;2023-05-29T05:07:39;12.38;;;2.28;;
26502;SDS011;14177;51.520;6.764;2023-05-29T05:10:06;12.93;;;1.90;;
26502;SDS011;14177;51.520;6.764;2023-05-29T05:12:35;7.13;;;2.10;;
26502;SDS011;14177;51.520;6.764;2023-05-29T05:15:03;13.43;;;2.22;;
26502;SDS011;14177;51.520;6.764;2023-05-29T05:17:33;10.82;;;2.50;;
26502;SDS011;14177;51.520;6.764;2023-05-29T05:20:00;12.82;;;2.72;;
26502;SDS011;14177;51.520;6.764;2023-05-29T05:22:27;7.47;;;2.33;;
26502;SDS011;14177;51.520;6.764;2023-05-29T05:24:55;13.68;;;2.33;;
26502;SDS011;14177;51.520;6.764;2023-05-29T05:27:23;22.75;;;2.75;;
26502;SDS011;14177;51.520;6.764;2023-05-29T05:29:52;11.20;;;2.60;;
26502;SDS011;14177;51.520;6.764;2023-05-29T05:32:19;10.55;;;1.90;;
26502;SDS011;14177;51.520;6.764;2023-05-29T05:34:52;19.55;;;2.67;;
26502;SDS011;14177;51.520;6.764;2023-05-29T05:37:20;16.25;;;2.75;;
26502;SDS011;14177;51.520;6.764;2023-05-29T05:39:49;10.52;;;2.03;;
26502;SDS011;14177;51.520;6.764;2023-05-29T05:42:17;12.75;;;2.55;;
26502;SDS011;14177;51.520;6.764;2023-05-29T05:44:50;12.55;;;2.50;;
26502;SDS011;14177;51.520;6.764;2023-05-29T05:47:17;15.25;;;2.47;;
26502;SDS011;14177;51.520;6.764;2023-05-29T05:49:45;12.93;;;2.63;;
26502;SDS011;14177;51.520;6.764;2023-05-29T05:52:12;11.27;;;2.15;;
26502;SDS011;14177;51.520;6.764;2023-05-29T05:54:39;12.93;;;2.72;;
26502;SDS011;14177;51.520;6.764;2023-05-29T05:57:06;10.75;;;2.20;;
26502;SDS011;14177;51.520;6.764;2023-05-29T05:59:35;14.40;;;2.78;;
26502;SDS011;14177;51.520;6.764;2023-05-29T06:02:04;14.77;;;2.17;;
26502;SDS011;14177;51.520;6.764;2023-05-29T06:04:34;8.88;;;1.90;;
26502;SDS011;14177;51.520;6.764;2023-05-29T06:07:02;15.07;;;2.72;;
26502;SDS011;14177;51.520;6.764;2023-05-29T06:09:29;10.82;;;2.17;;
26502;SDS011;14177;51.520;6.764;2023-05-29T06:11:57;13.10;;;2.80;;
26502;SDS011;14177;51.520;6.764;2023-05-29T06:14:24;11.00;;;2.10;;
26502;SDS011;14177;51.520;6.764;2023-05-29T06:16:52;17.05;;;2.72;;
26502;SDS011;14177;51.520;6.764;2023-05-29T06:19:20;15.13;;;2.50;;
26502;SDS011;14177;51.520;6.764;2023-05-29T06:21:56;13.93;;;2.08;;
26502;SDS011;14177;51.520;6.764;2023-05-29T06:24:26;9.82;;;2.17;;
26502;SDS011;14177;51.520;6.764;2023-05-29T06:26:55;10.63;;;2.40;;
26502;SDS011;14177;51.520;6.764;2023-05-29T06:29:22;10.82;;;2.15;;
26502;SDS011;14177;51.520;6.764;2023-05-29T06:31:49;13.55;;;2.53;;
26502;SDS011;14177;51.520;6.764;2023-05-29T06:34:18;8.40;;;2.13;;
26502;SDS011;14177;51.520;6.764;2023-05-29T06:36:46;11.90;;;1.90;;
26502;SDS011;14177;51.520;6.764;2023-05-29T06:39:13;8.75;;;1.58;;
26502;SDS011;14177;51.520;6.764;2023-05-29T06:41:40;9.32;;;2.00;;
26502;SDS011;14177;51.520;6.764;2023-05-29T06:44:08;12.73;;;2.25;;
26502;SDS011;14177;51.520;6.764;2023-05-29T06:46:35;6.47;;;1.80;;
26502;SDS011;14177;51.520;6.764;2023-05-29T06:49:02;11.40;;;2.38;;
26502;SDS011;14177;51.520;6.764;2023-05-29T06:51:33;9.23;;;1.77;;
26502;SDS011;14177;51.520;6.764;2023-05-29T06:54:29;8.15;;;2.15;;
26502;SDS011;14177;51.520;6.764;2023-05-29T06:56:56;8.95;;;2.00;;
26502;SDS011;14177;51.520;6.764;2023-05-29T06:59:37;11.32;;;2.05;;
26502;SDS011;14177;51.520;6.764;2023-05-29T07:02:06;14.75;;;2.30;;
26502;SDS011;14177;51.520;6.764;2023-05-29T07:04:33;11.15;;;1.90;;
26502;SDS011;14177;51.520;6.764;2023-05-29T07:07:00;12.98;;;2.85;;
26502;SDS011;14177;51.520;6.764;2023-05-29T07:09:27;13.02;;;2.50;;
26502;SDS011;14177;51.520;6.764;2023-05-29T07:11:55;14.32;;;2.50;;
26502;SDS011;14177;51.520;6.764;2023-05-29T07:14:22;11.75;;;2.10;;
26502;SDS011;14177;51.520;6.764;2023-05-29T07:16:49;12.55;;;2.20;;
26502;SDS011;14177;51.520;6.764;2023-05-29T07:19:16;6.45;;;1.90;;
26502;SDS011;14177;51.520;6.764;2023-05-29T07:21:47;12.35;;;1.88;;
26502;SDS011;14177;51.520;6.764;2023-05-29T07:24:17;15.07;;;2.22;;
26502;SDS011;14177;51.520;6.764;2023-05-29T07:26:44;9.65;;;1.88;;
26502;SDS011;14177;51.520;6.764;2023-05-29T07:29:12;10.00;;;2.13;;
26502;SDS011;14177;51.520;6.764;2023-05-29T07:31:40;9.45;;;1.75;;
26502;SDS011;14177;51.520;6.764;2023-05-29T07:34:11;13.57;;;2.33;;
26502;SDS011;14177;51.520;6.764;2023-05-29T07:39:32;16.08;;;2.65;;
26502;SDS011;14177;51.520;6.764;2023-05-29T07:42:09;14.15;;;2.30;;
26502;SDS011;14177;51.520;6.764;2023-05-29T07:44:38;11.55;;;2.25;;
26502;SDS011;14177;51.520;6.764;2023-05-29T07:47:08;8.63;;;1.90;;
26502;SDS011;14177;51.520;6.764;2023-05-29T07:49:40;9.77;;;2.17;;
26502;SDS011;14177;51.520;6.764;2023-05-29T07:52:08;14.32;;;2.60;;
26502;SDS011;14177;51.520;6.764;2023-05-29T07:54:35;13.45;;;2.03;;
26502;SDS011;14177;51.520;6.764;2023-05-29T07:57:02;9.57;;;2.40;;
26502;SDS011;14177;51.520;6.764;2023-05-29T07:59:31;8.85;;;1.98;;
26502;SDS011;14177;51.520;6.764;2023-05-29T08:01:59;11.63;;;2.17;;
26502;SDS011;14177;51.520;6.764;2023-05-29T08:04:52;11.35;;;3.25;;
26502;SDS011;14177;51.520;6.764;2023-05-29T08:07:53;11.75;;;1.85;;
26502;SDS011;14177;51.520;6.764;2023-05-29T08:10:26;17.17;;;2.55;;
26502;SDS011;14177;51.520;6.764;2023-05-29T08:12:59;9.63;;;2.10;;
26502;SDS011;14177;51.520;6.764;2023-05-29T08:15:57;11.50;;;2.03;;
26502;SDS011;14177;51.520;6.764;2023-05-29T08:20:45;11.52;;;2.30;;
26502;SDS011;14177;51.520;6.764;2023-05-29T08:24:01;8.50;;;2.30;;
26502;SDS011;14177;51.520;6.764;2023-05-29T08:26:48;13.30;;;2.40;;
26502;SDS011;14177;51.520;6.764;2023-05-29T08:29:20;8.95;;;2.25;;
26502;SDS011;14177;51.520;6.764;2023-05-29T08:31:55;11.02;;;2.22;;
26502;SDS011;14177;51.520;6.764;2023-05-29T08:34:42;9.27;;;2.28;;
26502;SDS011;14177;51.520;6.764;2023-05-29T08:38:38;7.80;;;1.90;;
26502;SDS011;14177;51.520;6.764;2023-05-29T08:42:10;11.10;;;2.00;;
26502;SDS011;14177;51.520;6.764;2023-05-29T08:46:11;9.43;;;2.10;;
26502;SDS011;14177;51.520;6.764;2023-05-29T08:48:43;10.50;;;2.20;;
26502;SDS011;14177;51.520;6.764;2023-05-29T09:00:24;11.40;;;2.47;;
26502;SDS011;14177;51.520;6.764;2023-05-29T09:04:01;6.95;;;2.15;;
26502;SDS011;14177;51.520;6.764;2023-05-29T09:06:48;8.88;;;2.05;;
26502;SDS011;14177;51.520;6.764;2023-05-29T09:14:01;8.30;;;1.73;;
26502;SDS011;14177;51.520;6.764;2023-05-29T09:17:50;10.45;;;2.15;;
26502;SDS011;14177;51.520;6.764;2023-05-29T09:21:02;10.43;;;1.65;;
26502;SDS011;14177;51.520;6.764;2023-05-29T09:24:23;7.63;;;2.00;;
26502;SDS011;14177;51.520;6.764;2023-05-29T09:28:17;7.68;;;1.80;;
26502;SDS011;14177;51.520;6.764;2023-05-29T09:31:03;8.23;;;2.20;;
26502;SDS011;14177;51.520;6.764;2023-05-29T09:35:21;9.35;;;2.13;;
26502;SDS011;14177;51.520;6.764;2023-05-29T09:38:16;9.85;;;2.20;;
26502;SDS011;14177;51.520;6.764;2023-05-29T09:41:55;10.52;;;2.13;;
26502;SDS011;14177;51.520;6.764;2023-05-29T09:45:08;9.65;;;2.33;;
26502;SDS011;14177;51.520;6.764;2023-05-29T09:48:12;6.80;;;1.90;;
26502;SDS011;14177;51.520;6.764;2023-05-29T09:51:23;7.80;;;2.08;;
26502;SDS011;14177;51.520;6.764;2023-05-29T10:00:07;8.52;;;1.80;;
26502;SDS011;14177;51.520;6.764;2023-05-29T10:02:46;13.52;;;2.30;;
26502;SDS011;14177;51.520;6.764;2023-05-29T10:05:23;8.82;;;1.90;;
26502;SDS011;14177;51.520;6.764;2023-05-29T10:08:25;9.77;;;1.98;;
26502;SDS011;14177;51.520;6.764;2023-05-29T10:12:04;6.68;;;1.73;;
26502;SDS011;14177;51.520;6.764;2023-05-29T10:15:44;8.23;;;2.17;;
26502;SDS011;14177;51.520;6.764;2023-05-29T10:18:35;9.07;;;2.28;;
26502;SDS011;14177;51.520;6.764;2023-05-29T10:21:20;8.82;;;1.90;;
26502;SDS011;14177;51.520;6.764;2023-05-29T10:27:00;9.05;;;1.85;;
26502;SDS011;14177;51.520;6.764;2023-05-29T10:30:09;9.02;;;1.98;;
26502;SDS011;14177;51.520;6.764;2023-05-29T10:36:24;7.72;;;1.88;;
26502;SDS011;14177;51.520;6.764;2023-05-29T10:42:56;7.57;;;2.35;;
26502;SDS011;14177;51.520;6.764;2023-05-29T10:50:45;9.80;;;1.95;;
26502;SDS011;14177;51.520;6.764;2023-05-29T10:53:48;9.18;;;2.25;;
26502;SDS011;14177;51.520;6.764;2023-05-29T10:56:27;6.72;;;1.98;;
26502;SDS011;14177;51.520;6.764;2023-05-29T10:59:24;6.87;;;1.60;;
26502;SDS011;14177;51.520;6.764;2023-05-29T11:02:00;9.50;;;2.30;;
26502;SDS011;14177;51.520;6.764;2023-05-29T11:04:33;7.13;;;1.60;;
26502;SDS011;14177;51.520;6.764;2023-05-29T11:07:00;5.57;;;1.73;;
26502;SDS011;14177;51.520;6.764;2023-05-29T11:09:36;8.32;;;1.63;;
26502;SDS011;14177;51.520;6.764;2023-05-29T11:20:07;6.43;;;1.83;;
26502;SDS011;14177;51.520;6.764;2023-05-29T11:22:56;9.13;;;1.95;;
26502;SDS011;14177;51.520;6.764;2023-05-29T11:25:32;6.57;;;1.63;;
26502;SDS011;14177;51.520;6.764;2023-05-29T11:28:05;9.57;;;2.05;;
26502;SDS011;14177;51.520;6.764;2023-05-29T11:30:43;10.98;;;2.00;;
26502;SDS011;14177;51.520;6.764;2023-05-29T11:33:17;10.70;;;2.22;;
26502;SDS011;14177;51.520;6.764;2023-05-29T11:35:58;9.48;;;1.95;;
26502;SDS011;14177;51.520;6.764;2023-05-29T11:38:27;5.82;;;2.03;;
26502;SDS011;14177;51.520;6.764;2023-05-29T11:40:55;5.95;;;1.73;;
26502;SDS011;14177;51.520;6.764;2023-05-29T11:43:22;5.88;;;1.60;;
26502;SDS011;14177;51.520;6.764;2023-05-29T11:45:51;6.97;;;2.05;;
26502;SDS011;14177;51.520;6.764;2023-05-29T11:48:18;7.50;;;2.08;;
26502;SDS011;14177;51.520;6.764;2023-05-29T11:50:46;7.60;;;1.75;;
26502;SDS011;14177;51.520;6.764;2023-05-29T11:53:13;10.52;;;1.90;;
26502;SDS011;14177;51.520;6.764;2023-05-29T11:55:40;5.60;;;1.90;;
26502;SDS011;14177;51.520;6.764;2023-05-29T11:58:07;5.95;;;1.83;;
26502;SDS011;14177;51.520;6.764;2023-05-29T12:00:35;6.78;;;1.77;;
26502;SDS011;14177;51.520;6.764;2023-05-29T12:03:05;12.05;;;1.80;;
26502;SDS011;14177;51.520;6.764;2023-05-29T12:05:47;8.95;;;2.17;;
26502;SDS011;14177;51.520;6.764;2023-05-29T12:08:22;7.55;;;2.42;;
26502;SDS011;14177;51.520;6.764;2023-05-29T12:10:52;7.95;;;2.05;;
26502;SDS011;14177;51.520;6.764;2023-05-29T12:13:20;9.60;;;1.88;;
26502;SDS011;14177;51.520;6.764;2023-05-29T12:15:49;8.48;;;1.88;;
26502;SDS011;14177;51.520;6.764;2023-05-29T12:18:21;5.82;;;1.67;;
26502;SDS011;14177;51.520;6.764;2023-05-29T12:20:49;9.80;;;2.22;;
26502;SDS011;14177;51.520;6.764;2023-05-29T12:23:17;9.32;;;2.17;;
26502;SDS011;14177;51.520;6.764;2023-05-29T12:25:49;10.77;;;1.70;;
26502;SDS011;14177;51.520;6.764;2023-05-29T12:28:20;10.23;;;1.73;;
26502;SDS011;14177;51.520;6.764;2023-05-29T12:30:48;7.60;;;1.77;;
26502;SDS011;14177;51.520;6.764;2023-05-29T12:33:30;6.22;;;1.90;;
26502;SDS011;14177;51.520;6.764;2023-05-29T12:36:04;7.18;;;1.83;;
26502;SDS011;14177;51.520;6.764;2023-05-29T12:38:48;7.63;;;2.00;;
26502;SDS011;14177;51.520;6.764;2023-05-29T12:58:00;9.82;;;1.95;;
26502;SDS011;14177;51.520;6.764;2023-05-29T13:00:37;6.13;;;1.70;;
26502;SDS011;14177;51.520;6.764;2023-05-29T13:03:23;10.80;;;1.75;;
26502;SDS011;14177;51.520;6.764;2023-05-29T13:06:06;8.70;;;1.73;;
26502;SDS011;14177;51.520;6.764;2023-05-29T13:08:46;6.93;;;2.05;;
26502;SDS011;14177;51.520;6.764;2023-05-29T13:11:48;5.82;;;1.75;;
26502;SDS011;14177;51.520;6.764;2023-05-29T13:17:35;6.00;;;1.83;;
26502;SDS011;14177;51.520;6.764;2023-05-29T13:20:02;7.55;;;1.83;;
26502;SDS011;14177;51.520;6.764;2023-05-29T13:22:33;8.88;;;1.70;;
26502;SDS011;14177;51.520;6.764;2023-05-29T13:25:01;4.28;;;1.50;;
26502;SDS011;14177;51.520;6.764;2023-05-29T13:27:28;10.02;;;1.95;;
26502;SDS011;14177;51.520;6.764;2023-05-29T13:29:55;8.57;;;1.88;;
26502;SDS011;14177;51.520;6.764;2023-05-29T13:32:22;7.35;;;2.28;;
26502;SDS011;14177;51.520;6.764;2023-05-29T13:34:49;5.32;;;1.73;;
26502;SDS011;14177;51.520;6.764;2023-05-29T13:37:17;7.55;;;2.00;;
26502;SDS011;14177;51.520;6.764;2023-05-29T13:39:44;5.20;;;1.67;;
26502;SDS011;14177;51.520;6.764;2023-05-29T13:42:11;4.50;;;1.58;;
26502;SDS011;14177;51.520;6.764;2023-05-29T13:44:38;6.80;;;1.83;;
26502;SDS011;14177;51.520;6.764;2023-05-29T13:47:06;10.00;;;1.90;;
26502;SDS011;14177;51.520;6.764;2023-05-29T13:49:34;5.55;;;1.98;;
26502;SDS011;14177;51.520;6.764;2023-05-29T13:52:02;7.00;;;2.30;;
26502;SDS011;14177;51.520;6.764;2023-05-29T13:54:30;6.53;;;2.25;;
26502;SDS011;14177;51.520;6.764;2023-05-29T13:57:02;7.88;;;1.80;;
26502;SDS011;14177;51.520;6.764;2023-05-29T13:59:30;7.45;;;1.70;;
26502;SDS011;14177;51.520;6.764;2023-05-29T14:02:01;7.00;;;1.90;;
26502;SDS011;14177;51.520;6.764;2023-05-29T14:04:29;7.15;;;2.03;;
26502;SDS011;14177;51.520;6.764;2023-05-29T14:06:57;9.65;;;1.70;;
26502;SDS011;14177;51.520;6.764;2023-05-29T14:09:24;4.88;;;1.80;;
26502;SDS011;14177;51.520;6.764;2023-05-29T14:11:55;9.80;;;1.75;;
26502;SDS011;14177;51.520;6.764;2023-05-29T14:14:25;7.57;;;1.73;;
26502;SDS011;14177;51.520;6.764;2023-05-29T14:16:53;6.97;;;2.03;;
26502;SDS011;14177;51.520;6.764;2023-05-29T14:19:21;7.43;;;1.85;;
26502;SDS011;14177;51.520;6.764;2023-05-29T14:21:50;5.82;;;1.67;;
26502;SDS011;14177;51.520;6.764;2023-05-29T14:24:18;5.80;;;1.98;;
26502;SDS011;14177;51.520;6.764;2023-05-29T14:26:45;6.03;;;1.80;;
26502;SDS011;14177;51.520;6.764;2023-05-29T14:29:14;6.60;;;1.95;;
26502;SDS011;14177;51.520;6.764;2023-05-29T14:31:42;9.80;;;2.20;;
26502;SDS011;14177;51.520;6.764;2023-05-29T14:34:11;7.43;;;1.77;;
26502;SDS011;14177;51.520;6.764;2023-05-29T14:36:39;10.40;;;2.65;;
26502;SDS011;14177;51.520;6.764;2023-05-29T14:39:07;9.45;;;2.25;;
26502;SDS011;14177;51.520;6.764;2023-05-29T14:41:34;4.80;;;1.77;;
26502;SDS011;14177;51.520;6.764;2023-05-29T14:44:02;9.52;;;2.10;;
26502;SDS011;14177;51.520;6.764;2023-05-29T14:46:29;6.10;;;1.90;;
26502;SDS011;14177;51.520;6.764;2023-05-29T14:49:00;6.65;;;2.10;;
26502;SDS011;14177;51.520;6.764;2023-05-29T14:51:28;6.60;;;1.70;;
26502;SDS011;14177;51.520;6.764;2023-05-29T14:53:55;5.32;;;1.65;;
26502;SDS011;14177;51.520;6.764;2023-05-29T14:56:22;5.70;;;1.55;;
26502;SDS011;14177;51.520;6.764;2023-05-29T14:58:49;6.80;;;1.90;;
26502;SDS011;14177;51.520;6.764;2023-05-29T15:01:17;5.97;;;1.77;;
26502;SDS011;14177;51.520;6.764;2023-05-29T15:03:44;6.07;;;1.75;;
26502;SDS011;14177;51.520;6.764;2023-05-29T15:06:12;6.40;;;1.98;;
26502;SDS011;14177;51.520;6.764;2023-05-29T15:08:39;7.18;;;2.08;;
26502;SDS011;14177;51.520;6.764;2023-05-29T15:11:10;6.60;;;2.00;;
26502;SDS011;14177;51.520;6.764;2023-05-29T15:13:39;6.47;;;2.17;;
26502;SDS011;14177;51.520;6.764;2023-05-29T15:16:06;4.40;;;1.90;;
26502;SDS011;14177;51.520;6.764;2023-05-29T15:18:34;6.93;;;1.75;;
26502;SDS011;14177;51.520;6.764;2023-05-29T15:21:02;5.03;;;1.67;;
26502;SDS011;14177;51.520;6.764;2023-05-29T15:23:30;8.98;;;1.80;;
26502;SDS011;14177;51.520;6.764;2023-05-29T15:26:00;4.50;;;1.45;;
26502;SDS011;14177;51.520;6.764;2023-05-29T15:28:29;5.90;;;1.55;;
26502;SDS011;14177;51.520;6.764;2023-05-29T15:30:57;6.97;;;1.70;;
26502;SDS011;14177;51.520;6.764;2023-05-29T15:33:24;5.90;;;1.80;;
26502;SDS011;14177;51.520;6.764;2023-05-29T15:35:56;7.38;;;3.03;;
26502;SDS011;14177;51.520;6.764;2023-05-29T15:38:23;5.68;;;2.15;;
26502;SDS011;14177;51.520;6.764;2023-05-29T15:40:50;6.75;;;1.73;;
26502;SDS011;14177;51.520;6.764;2023-05-29T15:43:18;6.05;;;1.83;;
26502;SDS011;14177;51.520;6.764;2023-05-29T15:45:45;9.13;;;2.03;;
26502;SDS011;14177;51.520;6.764;2023-05-29T15:48:13;6.60;;;1.77;;
26502;SDS011;14177;51.520;6.764;2023-05-29T15:50:41;5.28;;;1.60;;
26502;SDS011;14177;51.520;6.764;2023-05-29T15:53:08;6.22;;;1.80;;
26502;SDS011;14177;51.520;6.764;2023-05-29T15:55:35;5.65;;;1.60;;
26502;SDS011;14177;51.520;6.764;2023-05-29T15:58:02;7.47;;;1.95;;
26502;SDS011;14177;51.520;6.764;2023-05-29T16:00:29;4.70;;;1.45;;
26502;SDS011;14177;51.520;6.764;2023-05-29T16:02:57;6.95;;;1.90;;
26502;SDS011;14177;51.520;6.764;2023-05-29T16:05:24;5.68;;;2.45;;
26502;SDS011;14177;51.520;6.764;2023-05-29T16:07:51;7.03;;;1.70;;
26502;SDS011;14177;51.520;6.764;2023-05-29T16:10:19;8.55;;;1.98;;
26502;SDS011;14177;51.520;6.764;2023-05-29T16:12:46;6.15;;;1.77;;
26502;SDS011;14177;51.520;6.764;2023-05-29T16:15:17;6.90;;;2.08;;
26502;SDS011;14177;51.520;6.764;2023-05-29T16:17:45;5.97;;;1.75;;
26502;SDS011;14177;51.520;6.764;2023-05-29T16:20:14;9.55;;;2.00;;
26502;SDS011;14177;51.520;6.764;2023-05-29T16:22:41;7.00;;;1.58;;
26502;SDS011;14177;51.520;6.764;2023-05-29T16:25:09;5.75;;;1.83;;
26502;SDS011;14177;51.520;6.764;2023-05-29T16:27:37;7.55;;;1.95;;
26502;SDS011;14177;51.520;6.764;2023-05-29T16:30:05;6.65;;;1.80;;
26502;SDS011;14177;51.520;6.764;2023-05-29T16:32:34;6.95;;;2.00;;
26502;SDS011;14177;51.520;6.764;2023-05-29T16:35:02;7.53;;;1.83;;
26502;SDS011;14177;51.520;6.764;2023-05-29T16:37:30;7.07;;;1.85;;